createdAt,value
2018-12-23T00:01:08.510Z,3.10
2018-12-23T00:03:36.705Z,4.47
2018-12-23T00:06:04.919Z,4.67
2018-12-23T00:08:33.114Z,4.45
2018-12-23T00:11:01.316Z,4.60
2018-12-23T00:13:29.518Z,3.72
2018-12-23T00:15:57.719Z,4.12
2018-12-23T00:18:25.980Z,3.60
2018-12-23T00:20:54.190Z,4.33
2018-12-23T00:23:22.411Z,4.22
2018-12-23T00:25:50.591Z,4.35
2018-12-23T00:28:18.822Z,6.22
2018-12-23T00:30:47.062Z,5.10
2018-12-23T00:33:15.222Z,3.62
2018-12-23T00:35:43.455Z,4.42
2018-12-23T00:38:11.686Z,3.85
2018-12-23T00:40:39.847Z,5.17
2018-12-23T00:43:08.081Z,4.20
2018-12-23T00:45:36.262Z,4.58
2018-12-23T00:48:04.501Z,3.52
2018-12-23T00:50:32.719Z,4.05
2018-12-23T00:53:00.891Z,4.00
2018-12-23T00:55:29.105Z,6.87
2018-12-23T00:57:57.252Z,5.50
2018-12-23T01:00:25.518Z,4.22
2018-12-23T01:02:53.746Z,4.58
2018-12-23T01:05:28.738Z,4.55
2018-12-23T01:07:52.182Z,4.97
2018-12-23T01:10:20.907Z,5.10
2018-12-23T01:12:49.507Z,5.30
2018-12-23T01:15:18.151Z,2.92
2018-12-23T01:17:46.392Z,4.83
2018-12-23T01:20:14.562Z,4.28
2018-12-23T01:22:42.752Z,5.00
2018-12-23T01:25:11.007Z,5.30
2018-12-23T01:27:39.299Z,4.65
2018-12-23T01:30:07.548Z,4.70
2018-12-23T01:32:35.678Z,4.25
2018-12-23T01:35:03.870Z,4.65
2018-12-23T01:37:32.114Z,6.30
2018-12-23T01:40:00.305Z,4.70
2018-12-23T01:42:28.438Z,7.33
2018-12-23T01:44:56.678Z,7.55
2018-12-23T01:47:25.062Z,6.30
2018-12-23T01:49:53.174Z,6.78
2018-12-23T01:52:21.350Z,9.03
2018-12-23T01:54:49.560Z,6.50
2018-12-23T01:57:17.861Z,7.50
2018-12-23T01:59:46.064Z,8.30
2018-12-23T02:02:14.287Z,6.75
2018-12-23T02:04:42.542Z,5.22
2018-12-23T02:07:10.769Z,6.50
2018-12-23T02:09:38.987Z,7.50
2018-12-23T02:12:07.366Z,9.68
2018-12-23T02:14:35.555Z,7.10
2018-12-23T02:17:03.784Z,6.83
2018-12-23T02:19:32.011Z,6.12
2018-12-23T02:22:00.202Z,8.45
2018-12-23T02:24:28.326Z,6.83
2018-12-23T02:26:56.568Z,7.83
2018-12-23T02:29:24.754Z,7.58
2018-12-23T02:31:53.001Z,8.98
2018-12-23T02:34:21.393Z,9.35
2018-12-23T02:36:49.582Z,8.03
2018-12-23T02:39:17.807Z,7.55
2018-12-23T02:41:46.053Z,9.53
2018-12-23T02:44:14.322Z,9.80
2018-12-23T02:46:42.482Z,7.75
2018-12-23T02:49:10.709Z,8.90
2018-12-23T02:51:38.982Z,10.98
2018-12-23T02:54:07.163Z,8.08
2018-12-23T02:56:35.388Z,7.95
2018-12-23T02:59:03.640Z,8.15
2018-12-23T03:01:31.859Z,8.63
2018-12-23T03:04:00.040Z,9.80
2018-12-23T03:06:28.256Z,8.85
2018-12-23T03:08:56.583Z,8.10
2018-12-23T03:11:24.882Z,8.20
2018-12-23T03:13:53.116Z,7.87
2018-12-23T03:16:21.304Z,7.95
2018-12-23T03:18:49.574Z,9.15
2018-12-23T03:21:17.879Z,6.75
2018-12-23T03:23:46.167Z,9.83
2018-12-23T03:26:14.354Z,7.65
2018-12-23T03:28:42.535Z,9.95
2018-12-23T03:31:10.803Z,8.55
2018-12-23T03:33:39.104Z,9.03
2018-12-23T03:36:14.913Z,9.28
2018-12-23T03:38:37.454Z,10.30
2018-12-23T03:41:05.650Z,8.28
2018-12-23T03:43:33.875Z,8.10
2018-12-23T03:46:02.148Z,9.65
2018-12-23T03:48:30.392Z,9.78
2018-12-23T03:50:58.626Z,10.25
2018-12-23T03:53:26.793Z,9.88
2018-12-23T03:55:55.005Z,10.78
2018-12-23T03:58:23.260Z,9.55
2018-12-23T04:00:51.512Z,9.18
2018-12-23T04:03:19.811Z,10.20
2018-12-23T04:05:48.040Z,7.67
2018-12-23T04:08:16.269Z,12.23
2018-12-23T04:10:44.536Z,11.70
2018-12-23T04:13:12.651Z,10.82
2018-12-23T04:15:40.905Z,12.93
2018-12-23T04:18:09.107Z,11.48
2018-12-23T04:20:37.299Z,12.73
2018-12-23T04:23:05.563Z,10.68
2018-12-23T04:25:33.839Z,13.05
2018-12-23T04:28:02.066Z,12.00
2018-12-23T04:30:30.208Z,13.48
2018-12-23T04:32:58.433Z,10.60
2018-12-23T04:35:26.655Z,8.90
2018-12-23T04:37:54.840Z,11.28
2018-12-23T04:40:23.012Z,8.80
2018-12-23T04:42:51.157Z,9.30
2018-12-23T04:45:19.488Z,11.40
2018-12-23T04:47:47.699Z,12.13
2018-12-23T04:50:15.915Z,11.05
2018-12-23T04:52:44.109Z,13.10
2018-12-23T04:55:12.444Z,11.48
2018-12-23T04:57:40.659Z,12.20
2018-12-23T05:00:09.325Z,12.13
2018-12-23T05:02:37.510Z,11.63
2018-12-23T05:05:05.753Z,12.05
2018-12-23T05:07:33.966Z,12.47
2018-12-23T05:10:02.220Z,10.25
2018-12-23T05:12:30.480Z,12.00
2018-12-23T05:14:58.721Z,9.95
2018-12-23T05:17:27.048Z,7.37
2018-12-23T05:19:55.292Z,7.37
2018-12-23T05:22:23.483Z,7.47
2018-12-23T05:24:51.664Z,5.53
2018-12-23T05:27:19.823Z,6.30
2018-12-23T05:29:48.023Z,6.97
2018-12-23T05:32:16.328Z,6.20
2018-12-23T05:34:44.490Z,8.53
2018-12-23T05:37:12.647Z,6.28
2018-12-23T05:39:40.836Z,7.92
2018-12-23T05:42:09.071Z,8.03
2018-12-23T05:44:37.272Z,7.00
2018-12-23T05:47:05.529Z,9.23
2018-12-23T05:49:33.751Z,6.28
2018-12-23T05:52:01.986Z,6.25
2018-12-23T05:54:30.173Z,6.85
2018-12-23T05:56:58.322Z,6.92
2018-12-23T05:59:26.510Z,8.35
2018-12-23T06:01:54.756Z,6.45
2018-12-23T06:04:23.033Z,5.22
2018-12-23T06:06:51.227Z,6.95
2018-12-23T06:09:19.359Z,6.70
2018-12-23T06:11:47.639Z,6.60
2018-12-23T06:14:15.875Z,5.87
2018-12-23T06:16:44.167Z,5.80
2018-12-23T06:19:12.367Z,7.00
2018-12-23T06:21:40.543Z,6.05
2018-12-23T06:24:08.812Z,8.05
2018-12-23T06:26:37.091Z,6.20
2018-12-23T06:29:05.298Z,6.75
2018-12-23T06:31:33.541Z,6.60
2018-12-23T06:34:01.763Z,5.80
2018-12-23T06:36:30.113Z,5.30
2018-12-23T06:38:58.341Z,5.87
2018-12-23T06:41:26.607Z,5.90
2018-12-23T06:43:54.724Z,4.70
2018-12-23T06:46:23.116Z,4.30
2018-12-23T06:48:51.266Z,3.87
2018-12-23T06:51:19.429Z,4.50
2018-12-23T06:53:47.563Z,4.03
2018-12-23T06:56:15.768Z,4.60
2018-12-23T06:58:44.011Z,5.83
2018-12-23T07:01:12.312Z,4.70
2018-12-23T07:03:40.632Z,4.67
2018-12-23T07:06:08.904Z,4.17
2018-12-23T07:08:37.146Z,3.42
2018-12-23T07:11:05.382Z,6.65
2018-12-23T07:13:33.693Z,4.40
2018-12-23T07:16:01.943Z,4.75
2018-12-23T07:18:30.237Z,4.42
2018-12-23T07:20:58.471Z,4.92
2018-12-23T07:23:26.667Z,9.05
2018-12-23T07:25:54.940Z,4.40
2018-12-23T07:28:23.161Z,4.58
2018-12-23T07:30:51.439Z,4.00
2018-12-23T07:33:19.707Z,4.75
2018-12-23T07:35:47.940Z,3.72
2018-12-23T07:38:16.119Z,5.58
2018-12-23T07:40:44.475Z,4.08
2018-12-23T07:43:12.708Z,5.37
2018-12-23T07:45:40.999Z,6.47
2018-12-23T07:48:10.074Z,8.68
2018-12-23T07:50:38.351Z,7.62
2018-12-23T07:53:06.603Z,5.05
2018-12-23T07:55:34.803Z,5.75
2018-12-23T07:58:03.066Z,6.08
2018-12-23T08:00:31.320Z,8.05
2018-12-23T08:02:59.525Z,7.83
2018-12-23T08:05:27.748Z,9.65
2018-12-23T08:07:55.985Z,6.20
2018-12-23T08:10:24.215Z,8.98
2018-12-23T08:12:52.495Z,6.40
2018-12-23T08:15:20.740Z,9.38
2018-12-23T08:17:48.942Z,7.28
2018-12-23T08:20:17.212Z,7.33
2018-12-23T08:22:45.436Z,6.42
2018-12-23T08:25:13.753Z,7.00
2018-12-23T08:27:41.934Z,6.80
2018-12-23T08:30:10.168Z,6.60
2018-12-23T08:32:38.397Z,6.62
2018-12-23T08:35:06.651Z,6.72
2018-12-23T08:37:34.835Z,5.08
2018-12-23T08:40:03.097Z,6.50
2018-12-23T08:42:31.327Z,5.78
2018-12-23T08:44:59.507Z,9.58
2018-12-23T08:47:27.779Z,8.88
2018-12-23T08:49:56.057Z,5.37
2018-12-23T08:52:24.328Z,6.00
2018-12-23T08:54:52.686Z,7.85
2018-12-23T08:57:20.904Z,8.85
2018-12-23T08:59:49.095Z,6.42
2018-12-23T09:02:17.332Z,8.73
2018-12-23T09:04:45.639Z,6.85
2018-12-23T09:07:13.832Z,9.25
2018-12-23T09:09:42.086Z,7.12
2018-12-23T09:12:10.335Z,5.60
2018-12-23T09:14:38.617Z,7.55
2018-12-23T09:17:06.909Z,5.80
2018-12-23T09:19:35.154Z,5.58
2018-12-23T09:22:03.430Z,5.37
2018-12-23T09:24:31.736Z,5.72
2018-12-23T09:26:59.971Z,8.15
2018-12-23T09:29:28.298Z,6.30
2018-12-23T09:31:56.617Z,4.87
2018-12-23T09:34:24.862Z,7.30
2018-12-23T09:36:53.030Z,6.85
2018-12-23T09:39:21.428Z,6.03
2018-12-23T09:41:49.669Z,5.05
2018-12-23T09:44:17.903Z,6.47
2018-12-23T09:46:46.213Z,6.85
2018-12-23T09:49:14.402Z,4.30
2018-12-23T09:51:42.641Z,5.25
2018-12-23T09:54:10.896Z,3.75
2018-12-23T09:56:39.560Z,7.40
2018-12-23T09:59:07.901Z,7.45
2018-12-23T10:01:36.221Z,5.20
2018-12-23T10:04:04.525Z,6.12
2018-12-23T10:06:32.802Z,4.60
2018-12-23T10:09:00.948Z,8.53
2018-12-23T10:11:29.677Z,9.75
2018-12-23T10:13:57.819Z,12.03
2018-12-23T10:16:26.154Z,6.97
2018-12-23T10:18:54.754Z,5.62
2018-12-23T10:21:23.064Z,5.90
2018-12-23T10:23:51.222Z,4.35
2018-12-23T10:26:19.508Z,5.00
2018-12-23T10:28:47.806Z,5.22
2018-12-23T10:31:16.037Z,4.10
2018-12-23T10:33:44.279Z,5.60
2018-12-23T10:36:12.456Z,6.30
2018-12-23T10:38:40.871Z,5.72
2018-12-23T10:41:09.992Z,3.98
2018-12-23T10:43:38.215Z,5.60
2018-12-23T10:46:06.540Z,4.53
2018-12-23T10:48:34.752Z,4.28
2018-12-23T10:51:02.894Z,3.98
2018-12-23T10:53:31.035Z,4.22
2018-12-23T10:55:59.307Z,3.08
2018-12-23T10:58:27.541Z,6.90
2018-12-23T11:00:55.755Z,6.20
2018-12-23T11:03:23.942Z,3.20
2018-12-23T11:05:52.238Z,4.75
2018-12-23T11:08:26.895Z,3.47
2018-12-23T11:10:50.603Z,5.22
2018-12-23T11:13:18.835Z,3.40
2018-12-23T11:15:47.083Z,6.15
2018-12-23T11:18:15.513Z,4.42
2018-12-23T11:20:43.997Z,4.37
2018-12-23T11:23:12.306Z,7.22
2018-12-23T11:25:40.569Z,5.10
2018-12-23T11:28:08.877Z,4.90
2018-12-23T11:30:37.202Z,3.58
2018-12-23T11:33:05.766Z,4.97
2018-12-23T11:35:33.963Z,5.10
2018-12-23T11:38:02.197Z,7.47
2018-12-23T11:40:30.388Z,5.25
2018-12-23T11:42:58.692Z,5.40
2018-12-23T11:45:26.991Z,5.55
2018-12-23T11:47:55.309Z,5.00
2018-12-23T11:50:23.509Z,4.05
2018-12-23T11:52:51.906Z,3.87
2018-12-23T11:55:20.203Z,9.33
2018-12-23T11:57:48.480Z,6.03
2018-12-23T12:00:16.757Z,12.55
2018-12-23T12:02:44.980Z,5.40
2018-12-23T12:05:13.363Z,6.33
2018-12-23T12:07:41.606Z,7.67
2018-12-23T12:10:09.872Z,3.85
2018-12-23T12:12:38.043Z,5.97
2018-12-23T12:15:06.372Z,7.15
2018-12-23T12:17:34.635Z,7.85
2018-12-23T12:20:02.921Z,6.47
2018-12-23T12:22:31.307Z,7.17
2018-12-23T12:24:59.791Z,5.10
2018-12-23T12:27:28.084Z,5.97
2018-12-23T12:29:56.366Z,5.47
2018-12-23T12:32:24.539Z,6.42
2018-12-23T12:34:52.732Z,8.38
2018-12-23T12:37:20.953Z,5.53
2018-12-23T12:39:49.096Z,10.65
2018-12-23T12:42:17.364Z,15.32
2018-12-23T12:44:45.751Z,4.55
2018-12-23T12:47:14.014Z,5.72
2018-12-23T12:49:43.207Z,6.45
2018-12-23T12:52:11.666Z,5.03
2018-12-23T12:54:39.999Z,5.12
2018-12-23T12:57:08.422Z,5.30
2018-12-23T12:59:36.712Z,6.85
2018-12-23T13:02:05.046Z,7.72
2018-12-23T13:04:33.177Z,5.50
2018-12-23T13:07:01.484Z,3.95
2018-12-23T13:09:29.792Z,5.95
2018-12-23T13:11:58.200Z,5.67
2018-12-23T13:14:26.490Z,6.30
2018-12-23T13:16:54.984Z,6.35
2018-12-23T13:19:23.156Z,3.95
2018-12-23T13:21:51.463Z,3.22
2018-12-23T13:24:19.683Z,4.67
2018-12-23T13:26:47.854Z,6.60
2018-12-23T13:29:16.334Z,4.85
2018-12-23T13:31:44.573Z,4.87
2018-12-23T13:34:12.735Z,4.25
2018-12-23T13:36:40.944Z,6.20
2018-12-23T13:39:11.065Z,3.58
2018-12-23T13:41:51.137Z,3.60
2018-12-23T13:44:37.146Z,2.27
2018-12-23T13:49:17.387Z,4.22
2018-12-23T13:52:11.448Z,6.92
2018-12-23T13:54:49.934Z,7.00
2018-12-23T13:57:46.924Z,3.00
2018-12-23T14:00:26.691Z,5.20
2018-12-23T14:03:05.794Z,4.45
2018-12-23T14:05:48.957Z,5.37
2018-12-23T14:08:38.331Z,6.28
2018-12-23T14:11:18.502Z,5.55
2018-12-23T14:13:46.789Z,3.55
2018-12-23T14:16:15.015Z,6.25
2018-12-23T14:18:43.216Z,6.70
2018-12-23T14:21:11.440Z,3.45
2018-12-23T14:23:39.611Z,6.40
2018-12-23T14:26:07.846Z,3.27
2018-12-23T14:28:36.042Z,5.58
2018-12-23T14:31:04.305Z,3.67
2018-12-23T14:33:32.693Z,4.42
2018-12-23T14:36:00.888Z,9.93
2018-12-23T14:38:29.104Z,5.22
2018-12-23T14:40:57.260Z,8.10
2018-12-23T14:43:25.476Z,7.22
2018-12-23T14:45:53.726Z,6.50
2018-12-23T14:48:21.983Z,8.60
2018-12-23T14:50:50.243Z,10.03
2018-12-23T14:53:18.534Z,9.33
2018-12-23T14:55:46.751Z,7.50
2018-12-23T14:58:15.198Z,9.63
2018-12-23T15:00:43.591Z,7.40
2018-12-23T15:03:11.895Z,5.10
2018-12-23T15:05:40.167Z,5.75
2018-12-23T15:08:08.451Z,13.32
2018-12-23T15:10:36.595Z,12.45
2018-12-23T15:13:04.745Z,9.65
2018-12-23T15:15:32.943Z,8.20
2018-12-23T15:18:01.168Z,6.50
2018-12-23T15:20:29.520Z,8.33
2018-12-23T15:22:57.727Z,7.75
2018-12-23T15:25:25.890Z,4.45
2018-12-23T15:27:54.210Z,4.10
2018-12-23T15:30:22.456Z,4.90
2018-12-23T15:32:50.730Z,5.40
2018-12-23T15:35:25.699Z,4.90
2018-12-23T15:38:47.290Z,8.00
2018-12-23T15:41:28.500Z,5.55
2018-12-23T15:44:09.662Z,8.13
2018-12-23T15:46:50.823Z,8.23
2018-12-23T15:49:31.343Z,10.58
2018-12-23T15:55:08.894Z,6.55
2018-12-23T15:57:39.780Z,7.97
2018-12-23T16:00:28.437Z,6.70
2018-12-23T16:03:16.895Z,10.10
2018-12-23T16:12:07.402Z,8.55
2018-12-23T16:14:55.727Z,8.88
2018-12-23T16:17:44.559Z,12.43
2018-12-23T16:20:33.596Z,7.15
2018-12-23T16:23:21.951Z,8.28
2018-12-23T16:26:10.590Z,11.80
2018-12-23T16:28:59.688Z,8.90
2018-12-23T16:31:48.051Z,11.88
2018-12-23T16:34:36.061Z,9.55
2018-12-23T16:37:24.119Z,14.47
2018-12-23T16:40:12.700Z,14.98
2018-12-23T16:43:01.070Z,13.70
2018-12-23T16:45:49.114Z,12.25
2018-12-23T16:48:37.484Z,10.30
2018-12-23T16:51:25.870Z,11.40
2018-12-23T16:54:14.236Z,11.30
2018-12-23T16:57:02.645Z,26.33
2018-12-23T16:59:50.856Z,22.77
2018-12-23T17:02:39.139Z,12.90
2018-12-23T17:05:27.184Z,15.80
2018-12-23T17:08:15.715Z,18.67
2018-12-23T17:11:03.755Z,17.42
2018-12-23T17:13:51.770Z,19.90
2018-12-23T17:16:40.043Z,17.95
2018-12-23T17:19:28.148Z,21.87
2018-12-23T17:22:16.337Z,16.70
2018-12-23T17:25:04.438Z,11.05
2018-12-23T17:27:52.730Z,13.78
2018-12-23T17:33:48.400Z,10.93
2018-12-23T17:36:36.428Z,11.57
2018-12-23T17:39:24.539Z,12.13
2018-12-23T17:42:12.607Z,15.23
2018-12-23T17:45:00.802Z,12.43
2018-12-23T17:47:48.824Z,13.43
2018-12-23T17:50:36.883Z,13.53
2018-12-23T17:53:18.709Z,13.08
2018-12-23T17:56:00.423Z,16.97
2018-12-23T17:58:30.213Z,16.35
2018-12-23T18:01:18.699Z,13.28
2018-12-23T18:04:07.515Z,14.05
2018-12-23T18:07:03.720Z,15.30
2018-12-23T18:11:58.520Z,13.72
2018-12-23T18:14:46.975Z,15.05
2018-12-23T18:17:35.000Z,12.50
2018-12-23T18:20:23.238Z,16.52
2018-12-23T18:28:58.455Z,9.78
2018-12-23T18:31:46.808Z,16.05
2018-12-23T18:34:35.620Z,12.68
2018-12-23T18:37:23.799Z,15.30
2018-12-23T18:40:12.397Z,13.43
2018-12-23T18:43:00.488Z,13.30
2018-12-23T18:48:55.651Z,10.93
2018-12-23T18:51:43.948Z,10.00
2018-12-23T18:54:24.948Z,13.50
2018-12-23T18:57:05.874Z,13.03
2018-12-23T18:59:46.776Z,12.40
2018-12-23T19:02:27.506Z,13.50
2018-12-23T19:05:08.631Z,12.85
2018-12-23T19:07:49.536Z,13.43
2018-12-23T19:10:30.407Z,11.53
2018-12-23T19:13:11.235Z,14.45
2018-12-23T19:15:51.787Z,14.40
2018-12-23T19:18:32.555Z,19.85
2018-12-23T19:21:13.319Z,13.38
2018-12-23T19:23:53.860Z,16.65
2018-12-23T19:26:35.252Z,19.20
2018-12-23T19:29:16.367Z,14.50
2018-12-23T19:31:57.192Z,17.60
2018-12-23T19:34:38.015Z,17.32
2018-12-23T19:37:18.587Z,21.62
2018-12-23T19:39:59.559Z,16.10
2018-12-23T19:42:40.600Z,15.55
2018-12-23T19:45:21.970Z,15.28
2018-12-23T19:48:03.120Z,20.82
2018-12-23T19:50:43.831Z,16.80
2018-12-23T19:53:24.604Z,14.15
2018-12-23T19:56:05.810Z,13.65
2018-12-23T19:58:47.076Z,11.18
2018-12-23T20:01:27.695Z,14.13
2018-12-23T20:04:08.975Z,8.83
2018-12-23T20:06:50.152Z,13.40
2018-12-23T20:09:31.568Z,16.40
2018-12-23T20:12:12.804Z,19.42
2018-12-23T20:14:53.356Z,12.55
2018-12-23T20:17:34.043Z,12.30
2018-12-23T20:20:14.815Z,11.22
2018-12-23T20:22:55.544Z,11.93
2018-12-23T20:25:37.013Z,13.93
2018-12-23T20:28:18.264Z,15.95
2018-12-23T20:30:59.283Z,15.58
2018-12-23T20:33:40.491Z,14.20
2018-12-23T20:36:20.919Z,15.50
2018-12-23T20:39:01.717Z,17.35
2018-12-23T20:41:42.283Z,12.85
2018-12-23T20:44:23.015Z,17.85
2018-12-23T20:47:03.820Z,15.35
2018-12-23T20:52:27.310Z,22.15
2018-12-23T20:55:07.972Z,16.57
2018-12-23T20:57:48.848Z,12.45
2018-12-23T21:00:30.088Z,15.15
2018-12-23T21:03:11.435Z,18.42
2018-12-23T21:05:52.804Z,17.82
2018-12-23T21:08:33.229Z,13.13
2018-12-23T21:11:28.967Z,10.88
2018-12-23T21:14:20.460Z,13.70
2018-12-23T21:17:30.560Z,14.35
2018-12-23T21:20:35.581Z,9.13
2018-12-23T21:23:32.794Z,11.38
2018-12-23T21:26:32.232Z,12.40
2018-12-23T21:29:39.870Z,12.10
2018-12-23T21:32:45.799Z,12.70
2018-12-23T21:35:53.054Z,11.50
2018-12-23T21:39:00.575Z,8.15
2018-12-23T21:42:08.023Z,9.78
2018-12-23T21:45:15.515Z,8.13
2018-12-23T21:48:22.982Z,6.62
2018-12-23T21:51:30.507Z,5.03
2018-12-23T21:54:11.410Z,7.58
2018-12-23T21:56:52.083Z,9.08
2018-12-23T21:59:33.158Z,7.25
2018-12-23T22:02:13.912Z,7.60
2018-12-23T22:04:54.867Z,7.65
2018-12-23T22:07:35.528Z,5.65
2018-12-23T22:10:16.258Z,7.97
2018-12-23T22:12:57.074Z,5.53
2018-12-23T22:15:37.518Z,6.50
2018-12-23T22:18:18.325Z,5.17
2018-12-23T22:20:58.837Z,5.12
2018-12-23T22:23:40.172Z,7.87
2018-12-23T22:26:21.108Z,6.72
2018-12-23T22:29:02.130Z,7.47
2018-12-23T22:31:42.861Z,4.47
2018-12-23T22:34:23.382Z,5.85
2018-12-23T22:37:04.228Z,4.55
2018-12-23T22:39:45.254Z,4.50
2018-12-23T22:42:25.812Z,4.65
2018-12-23T22:45:07.452Z,4.10
2018-12-23T22:47:48.064Z,5.10
2018-12-23T22:50:28.791Z,3.67
2018-12-23T22:53:09.380Z,3.70
2018-12-23T22:55:50.148Z,5.40
2018-12-23T22:58:30.920Z,3.98
2018-12-23T23:01:11.766Z,4.65
2018-12-23T23:03:53.345Z,3.27
2018-12-23T23:06:34.823Z,5.05
2018-12-23T23:09:15.344Z,4.22
2018-12-23T23:11:56.194Z,4.25
2018-12-23T23:14:36.657Z,4.83
2018-12-23T23:17:17.311Z,6.25
2018-12-23T23:19:57.971Z,8.48
2018-12-23T23:22:39.222Z,5.37
2018-12-23T23:25:07.960Z,4.87
2018-12-23T23:27:55.968Z,5.10
2018-12-23T23:36:45.280Z,3.98
2018-12-23T23:39:33.318Z,5.17
2018-12-23T23:42:21.431Z,4.95
2018-12-23T23:45:09.745Z,5.08
2018-12-23T23:47:57.874Z,5.80
2018-12-23T23:53:46.514Z,6.12
2018-12-23T23:56:27.525Z,5.35
2018-12-23T23:59:07.953Z,4.85
